createdAt,value
2022-11-26T00:00:25.412Z,7.70
2022-11-26T00:02:29.261Z,7.70
2022-11-26T00:04:31.857Z,7.70
2022-11-26T00:06:35.433Z,7.70
2022-11-26T00:08:37.928Z,7.70
2022-11-26T00:10:40.416Z,7.60
2022-11-26T00:12:43.052Z,7.60
2022-11-26T00:14:46.662Z,7.60
2022-11-26T00:16:49.217Z,7.60
2022-11-26T00:18:51.909Z,7.60
2022-11-26T00:20:55.809Z,7.60
2022-11-26T00:23:00.831Z,7.50
2022-11-26T00:25:03.529Z,7.50
2022-11-26T00:27:06.008Z,7.50
2022-11-26T00:29:08.996Z,7.50
2022-11-26T00:31:13.480Z,7.60
2022-11-26T00:33:16.020Z,7.50
2022-11-26T00:35:18.812Z,7.50
2022-11-26T00:37:23.012Z,7.50
2022-11-26T00:39:26.171Z,7.50
2022-11-26T00:41:31.484Z,7.50
2022-11-26T00:43:33.967Z,7.40
2022-11-26T00:45:36.460Z,7.40
2022-11-26T00:47:38.956Z,7.40
2022-11-26T00:49:41.616Z,7.30
2022-11-26T00:51:45.007Z,7.30
2022-11-26T00:53:48.223Z,7.40
2022-11-26T00:55:50.691Z,7.30
2022-11-26T00:57:53.219Z,8.20
2022-11-26T00:59:55.746Z,7.30
2022-11-26T01:01:58.270Z,7.20
2022-11-26T01:04:00.932Z,7.30
2022-11-26T01:06:03.464Z,7.20
2022-11-26T01:08:09.073Z,7.30
2022-11-26T01:10:15.982Z,7.30
2022-11-26T01:12:18.492Z,7.30
2022-11-26T01:14:21.865Z,7.30
2022-11-26T01:16:26.240Z,7.30
2022-11-26T01:18:29.135Z,7.30
2022-11-26T01:20:31.845Z,7.30
2022-11-26T01:22:34.384Z,7.30
2022-11-26T01:24:37.102Z,7.30
2022-11-26T01:26:40.768Z,7.20
2022-11-26T01:28:43.597Z,7.20
2022-11-26T01:30:46.213Z,7.20
2022-11-26T01:32:49.140Z,7.20
2022-11-26T01:34:51.664Z,7.20
2022-11-26T01:36:54.116Z,7.20
2022-11-26T01:38:57.245Z,7.10
2022-11-26T01:41:05.061Z,7.10
2022-11-26T01:43:10.036Z,7.10
2022-11-26T01:45:16.841Z,7.10
2022-11-26T01:49:38.557Z,6.90
2022-11-26T01:51:41.276Z,6.90
2022-11-26T01:53:47.609Z,6.90
2022-11-26T01:56:04.429Z,6.90
2022-11-26T01:58:08.720Z,6.90
2022-11-26T02:00:12.688Z,6.90
2022-11-26T02:02:16.313Z,6.90
2022-11-26T02:04:20.455Z,6.90
2022-11-26T02:06:25.217Z,6.90
2022-11-26T02:08:29.501Z,6.90
2022-11-26T02:10:31.960Z,6.90
2022-11-26T02:12:34.479Z,6.90
2022-11-26T02:14:39.162Z,7.00
2022-11-26T02:16:54.797Z,6.90
2022-11-26T02:19:00.676Z,7.00
2022-11-26T02:21:04.993Z,7.10
2022-11-26T02:23:29.931Z,7.10
2022-11-26T02:25:37.828Z,7.10
2022-11-26T02:27:46.272Z,7.10
2022-11-26T02:30:07.933Z,7.20
2022-11-26T02:32:12.522Z,7.10
2022-11-26T02:34:17.544Z,7.20
2022-11-26T02:36:21.900Z,7.20
2022-11-26T02:38:25.502Z,7.20
2022-11-26T02:40:28.195Z,7.20
2022-11-26T02:42:31.844Z,7.20
2022-11-26T02:44:36.588Z,7.20
2022-11-26T02:46:40.358Z,7.10
2022-11-26T02:48:44.788Z,7.10
2022-11-26T02:50:49.200Z,7.10
2022-11-26T02:52:53.183Z,7.20
2022-11-26T02:54:56.808Z,7.20
2022-11-26T02:56:59.440Z,7.10
2022-11-26T02:59:02.141Z,7.10
2022-11-26T03:01:06.664Z,7.20
2022-11-26T03:03:12.201Z,7.10
2022-11-26T03:05:16.492Z,7.10
2022-11-26T03:07:19.875Z,7.00
2022-11-26T03:09:24.641Z,7.00
2022-11-26T03:11:27.538Z,7.00
2022-11-26T03:13:30.236Z,7.00
2022-11-26T03:15:32.736Z,7.00
2022-11-26T03:17:35.457Z,6.90
2022-11-26T03:19:38.028Z,6.90
2022-11-26T03:21:40.498Z,6.90
2022-11-26T03:23:43.192Z,6.90
2022-11-26T03:25:45.735Z,6.90
2022-11-26T03:27:48.256Z,6.90
2022-11-26T03:29:50.759Z,6.90
2022-11-26T03:31:53.413Z,6.90
2022-11-26T03:33:55.949Z,6.80
2022-11-26T03:35:58.546Z,6.80
2022-11-26T03:38:01.073Z,6.80
2022-11-26T03:40:03.808Z,6.70
2022-11-26T03:42:06.537Z,6.70
2022-11-26T03:44:09.142Z,6.60
2022-11-26T03:46:12.987Z,6.60
2022-11-26T03:48:17.039Z,6.60
2022-11-26T03:50:20.810Z,6.50
2022-11-26T03:52:25.097Z,6.40
2022-11-26T03:54:28.750Z,6.30
2022-11-26T03:56:32.436Z,6.30
2022-11-26T03:58:35.952Z,6.30
2022-11-26T04:00:39.584Z,6.30
2022-11-26T04:02:43.094Z,6.30
2022-11-26T04:04:45.781Z,6.20
2022-11-26T04:06:49.317Z,6.20
2022-11-26T04:08:52.526Z,6.20
2022-11-26T04:10:56.084Z,6.20
2022-11-26T04:12:58.745Z,6.30
2022-11-26T04:15:02.228Z,6.20
2022-11-26T04:17:05.620Z,6.20
2022-11-26T04:19:09.095Z,6.20
2022-11-26T04:21:12.977Z,6.20
2022-11-26T04:23:16.385Z,6.10
2022-11-26T04:25:20.054Z,6.10
2022-11-26T04:27:22.690Z,6.10
2022-11-26T04:29:26.406Z,6.00
2022-11-26T04:31:29.111Z,6.00
2022-11-26T04:33:31.780Z,6.00
2022-11-26T04:35:34.280Z,5.90
2022-11-26T04:37:36.896Z,5.90
2022-11-26T04:39:39.401Z,5.90
2022-11-26T04:41:42.421Z,5.90
2022-11-26T04:43:44.919Z,5.90
2022-11-26T04:45:47.462Z,5.90
2022-11-26T04:47:50.013Z,5.80
2022-11-26T04:49:54.243Z,5.70
2022-11-26T04:51:56.801Z,5.70
2022-11-26T04:54:02.717Z,5.70
2022-11-26T04:56:03.832Z,5.70
2022-11-26T04:58:06.580Z,5.70
2022-11-26T05:02:29.209Z,5.70
2022-11-26T05:04:31.906Z,5.70
2022-11-26T05:06:34.392Z,5.80
2022-11-26T05:08:37.004Z,5.70
2022-11-26T05:10:39.464Z,5.60
2022-11-26T05:12:42.078Z,5.60
2022-11-26T05:14:44.539Z,5.50
2022-11-26T05:16:47.161Z,5.60
2022-11-26T05:18:49.757Z,5.70
2022-11-26T05:20:52.308Z,5.60
2022-11-26T05:22:54.961Z,5.70
2022-11-26T05:24:57.457Z,5.60
2022-11-26T05:26:59.933Z,5.60
2022-11-26T05:29:02.416Z,5.50
2022-11-26T05:31:05.030Z,5.50
2022-11-26T05:33:07.625Z,5.40
2022-11-26T05:35:10.375Z,5.40
2022-11-26T05:37:12.855Z,5.40
2022-11-26T05:39:15.871Z,5.50
2022-11-26T05:41:18.546Z,5.50
2022-11-26T05:43:21.017Z,5.40
2022-11-26T05:45:23.544Z,5.40
2022-11-26T05:47:26.137Z,5.50
2022-11-26T05:49:28.669Z,5.40
2022-11-26T05:51:31.155Z,5.30
2022-11-26T05:53:33.778Z,5.30
2022-11-26T05:55:36.290Z,5.30
2022-11-26T05:57:38.751Z,5.30
2022-11-26T05:59:41.215Z,5.40
2022-11-26T06:01:43.732Z,5.30
2022-11-26T06:03:46.289Z,5.40
2022-11-26T06:05:48.832Z,5.30
2022-11-26T06:07:51.376Z,5.30
2022-11-26T06:09:54.039Z,5.30
2022-11-26T06:11:56.597Z,5.30
2022-11-26T06:13:59.080Z,5.30
2022-11-26T06:16:01.734Z,5.30
2022-11-26T06:18:04.428Z,5.30
2022-11-26T06:20:08.032Z,5.20
2022-11-26T06:22:10.500Z,5.10
2022-11-26T06:24:13.192Z,5.10
2022-11-26T06:26:16.585Z,5.00
2022-11-26T06:28:19.140Z,4.90
2022-11-26T06:30:21.848Z,4.90
2022-11-26T06:32:24.327Z,4.90
2022-11-26T06:34:26.831Z,4.80
2022-11-26T06:36:29.393Z,4.80
2022-11-26T06:38:32.079Z,4.80
2022-11-26T06:40:34.668Z,4.80
2022-11-26T06:42:37.352Z,4.70
2022-11-26T06:44:40.176Z,4.70
2022-11-26T06:46:42.935Z,4.70
2022-11-26T06:48:45.433Z,4.80
2022-11-26T06:50:47.982Z,4.90
2022-11-26T06:52:51.635Z,4.90
2022-11-26T06:54:54.438Z,5.00
2022-11-26T06:56:56.975Z,5.30
2022-11-26T06:58:59.447Z,5.40
2022-11-26T07:01:06.114Z,5.50
2022-11-26T07:03:09.120Z,5.50
2022-11-26T07:05:11.610Z,5.60
2022-11-26T07:07:14.169Z,5.60
2022-11-26T07:09:16.700Z,5.60
2022-11-26T07:11:19.600Z,5.70
2022-11-26T07:13:22.127Z,5.80
2022-11-26T07:15:24.663Z,5.80
2022-11-26T07:17:28.245Z,5.80
2022-11-26T07:19:30.785Z,5.80
2022-11-26T07:21:33.316Z,5.90
2022-11-26T07:23:35.818Z,5.90
2022-11-26T07:25:38.340Z,5.90
2022-11-26T07:27:41.148Z,5.90
2022-11-26T07:29:43.662Z,5.90
2022-11-26T07:31:46.212Z,5.90
2022-11-26T07:33:49.222Z,6.00
2022-11-26T07:35:51.728Z,6.00
2022-11-26T07:37:54.345Z,6.00
2022-11-26T07:39:56.913Z,6.00
2022-11-26T07:41:59.513Z,6.00
2022-11-26T07:44:02.009Z,6.10
2022-11-26T07:46:05.829Z,6.10
2022-11-26T07:48:10.461Z,6.10
2022-11-26T07:50:12.763Z,6.20
2022-11-26T07:52:15.353Z,6.20
2022-11-26T07:54:17.837Z,6.20
2022-11-26T07:56:20.418Z,6.20
2022-11-26T07:58:23.233Z,6.30
2022-11-26T08:00:25.888Z,6.40
2022-11-26T08:02:28.432Z,6.50
2022-11-26T08:04:30.979Z,6.50
2022-11-26T08:06:33.507Z,6.50
2022-11-26T08:08:36.084Z,6.50
2022-11-26T08:10:39.288Z,6.60
2022-11-26T08:12:41.941Z,6.80
2022-11-26T08:14:44.413Z,6.90
2022-11-26T08:16:46.966Z,7.00
2022-11-26T08:18:51.342Z,7.00
2022-11-26T08:20:57.025Z,7.10
2022-11-26T08:22:59.544Z,7.20
2022-11-26T08:25:02.041Z,7.30
2022-11-26T08:29:21.136Z,7.40
2022-11-26T08:31:26.265Z,7.50
2022-11-26T08:33:28.820Z,7.60
2022-11-26T08:35:59.075Z,7.60
2022-11-26T08:37:35.644Z,7.70
2022-11-26T08:39:38.343Z,7.70
2022-11-26T08:41:40.808Z,7.80
2022-11-26T08:45:53.046Z,7.80
2022-11-26T08:47:55.571Z,7.80
2022-11-26T08:49:58.091Z,7.80
2022-11-26T08:52:00.623Z,7.80
2022-11-26T08:54:03.542Z,7.90
2022-11-26T08:56:07.296Z,7.90
2022-11-26T08:58:09.816Z,7.90
2022-11-26T09:00:13.085Z,7.90
2022-11-26T09:02:18.975Z,7.90
2022-11-26T09:04:20.661Z,8.00
2022-11-26T09:06:24.060Z,8.00
2022-11-26T09:08:28.568Z,8.00
2022-11-26T09:10:31.415Z,8.00
2022-11-26T09:12:34.790Z,8.10
2022-11-26T09:14:40.694Z,8.20
2022-11-26T09:16:44.041Z,8.20
2022-11-26T09:18:46.901Z,8.30
2022-11-26T09:20:52.904Z,8.30
2022-11-26T09:22:53.789Z,8.40
2022-11-26T09:24:57.184Z,8.40
2022-11-26T09:27:04.151Z,8.50
2022-11-26T09:29:04.239Z,8.50
2022-11-26T09:31:06.780Z,8.60
2022-11-26T09:33:09.265Z,8.70
2022-11-26T09:35:11.808Z,8.70
2022-11-26T09:37:14.261Z,8.80
2022-11-26T09:39:16.883Z,8.90
2022-11-26T09:41:23.448Z,8.90
2022-11-26T09:43:28.031Z,8.90
2022-11-26T09:45:35.270Z,8.90
2022-11-26T09:47:39.605Z,8.90
2022-11-26T09:49:45.456Z,9.00
2022-11-26T09:51:49.793Z,9.00
2022-11-26T09:53:52.897Z,9.20
2022-11-26T09:55:55.800Z,9.30
2022-11-26T09:58:00.943Z,9.40
2022-11-26T10:00:04.493Z,9.50
2022-11-26T10:02:10.772Z,9.60
2022-11-26T10:04:16.176Z,9.60
2022-11-26T10:06:21.181Z,9.60
2022-11-26T10:08:47.456Z,9.60
2022-11-26T10:10:52.341Z,9.60
2022-11-26T10:13:17.985Z,9.70
2022-11-26T10:15:05.503Z,9.70
2022-11-26T10:17:13.354Z,9.70
2022-11-26T10:19:18.888Z,9.70
2022-11-26T10:21:32.566Z,9.60
2022-11-26T10:23:30.405Z,9.70
2022-11-26T10:25:36.100Z,9.90
2022-11-26T10:27:39.326Z,10.00
2022-11-26T10:29:42.531Z,10.00
2022-11-26T10:31:46.013Z,10.00
2022-11-26T10:33:51.985Z,10.00
2022-11-26T10:35:54.491Z,10.00
2022-11-26T10:37:57.295Z,10.00
2022-11-26T10:40:07.051Z,10.00
2022-11-26T10:44:30.603Z,10.00
2022-11-26T10:46:34.661Z,10.10
2022-11-26T10:48:37.340Z,10.10
2022-11-26T10:50:47.587Z,10.10
2022-11-26T10:52:45.392Z,10.10
2022-11-26T10:54:49.680Z,10.10
2022-11-26T10:56:52.857Z,10.20
2022-11-26T10:58:57.227Z,10.20
2022-11-26T11:01:02.015Z,10.10
2022-11-26T11:03:05.860Z,10.10
2022-11-26T11:05:09.620Z,10.10
2022-11-26T11:07:20.574Z,10.20
2022-11-26T11:09:25.309Z,10.20
2022-11-26T11:11:28.612Z,10.20
2022-11-26T11:13:40.755Z,10.30
2022-11-26T11:15:43.969Z,10.30
2022-11-26T11:17:47.296Z,10.30
2022-11-26T11:19:49.828Z,9.90
2022-11-26T11:21:52.448Z,10.10
2022-11-26T11:24:11.894Z,10.10
2022-11-26T11:26:02.625Z,10.10
2022-11-26T11:28:11.806Z,10.10
2022-11-26T11:30:14.784Z,10.30
2022-11-26T11:32:31.164Z,10.40
2022-11-26T11:34:37.451Z,10.40
2022-11-26T11:36:40.240Z,10.50
2022-11-26T11:38:47.188Z,10.50
2022-11-26T11:40:49.766Z,10.50
2022-11-26T11:42:54.221Z,10.50
2022-11-26T11:44:58.984Z,10.50
2022-11-26T11:47:20.564Z,10.50
2022-11-26T11:49:25.797Z,10.60
2022-11-26T11:51:31.860Z,10.60
2022-11-26T11:53:37.020Z,10.50
2022-11-26T11:55:47.643Z,10.50
2022-11-26T11:57:55.157Z,10.50
2022-11-26T12:00:11.463Z,10.50
2022-11-26T12:02:30.676Z,10.60
2022-11-26T12:04:52.405Z,10.70
2022-11-26T12:06:57.488Z,10.80
2022-11-26T12:09:03.656Z,10.80
2022-11-26T12:11:11.248Z,10.90
2022-11-26T12:13:14.691Z,10.90
2022-11-26T12:15:19.503Z,11.00
2022-11-26T12:17:25.139Z,11.00
2022-11-26T12:19:31.324Z,11.00
2022-11-26T12:21:36.546Z,9.60
2022-11-26T12:23:40.853Z,11.10
2022-11-26T12:25:44.145Z,11.20
2022-11-26T12:27:58.808Z,11.20
2022-11-26T12:30:06.364Z,11.10
2022-11-26T12:32:11.896Z,11.10
2022-11-26T12:34:16.681Z,11.00
2022-11-26T12:36:21.805Z,11.00
2022-11-26T12:38:26.244Z,10.90
2022-11-26T12:40:31.533Z,10.90
2022-11-26T12:42:36.232Z,10.80
2022-11-26T12:44:40.526Z,10.80
2022-11-26T12:46:44.974Z,10.80
2022-11-26T12:48:50.172Z,10.80
2022-11-26T12:50:54.875Z,10.80
2022-11-26T12:52:59.804Z,10.80
2022-11-26T12:55:04.572Z,10.90
2022-11-26T12:57:09.631Z,10.90
2022-11-26T12:59:14.711Z,11.00
2022-11-26T13:01:17.279Z,11.00
2022-11-26T13:03:21.784Z,11.00
2022-11-26T13:05:26.913Z,11.00
2022-11-26T13:09:53.045Z,11.10
2022-11-26T13:11:57.814Z,11.10
2022-11-26T13:14:02.780Z,11.10
2022-11-26T13:16:08.069Z,11.10
2022-11-26T13:18:12.412Z,11.20
2022-11-26T13:20:18.450Z,11.20
2022-11-26T13:22:46.062Z,11.10
2022-11-26T13:24:55.949Z,11.10
2022-11-26T13:27:03.599Z,11.10
2022-11-26T13:29:19.336Z,11.10
2022-11-26T13:31:26.405Z,11.10
2022-11-26T13:33:57.240Z,11.00
2022-11-26T13:36:06.250Z,11.00
2022-11-26T13:38:13.296Z,11.00
2022-11-26T13:40:22.828Z,11.00
2022-11-26T13:42:36.312Z,11.00
2022-11-26T13:45:00.733Z,10.90
2022-11-26T13:47:04.342Z,10.90
2022-11-26T13:49:07.728Z,10.90
2022-11-26T13:51:12.063Z,10.90
2022-11-26T13:53:21.289Z,10.90
2022-11-26T13:55:25.111Z,10.90
2022-11-26T13:57:31.020Z,10.90
2022-11-26T13:59:34.008Z,10.90
2022-11-26T14:01:39.352Z,10.90
2022-11-26T14:03:45.763Z,10.90
2022-11-26T14:06:08.289Z,10.90
2022-11-26T14:08:30.293Z,10.80
2022-11-26T14:10:42.940Z,10.80
2022-11-26T14:13:03.275Z,10.80
2022-11-26T14:15:08.000Z,10.80
2022-11-26T14:17:18.362Z,10.70
2022-11-26T14:19:20.850Z,10.70
2022-11-26T14:21:23.830Z,10.70
2022-11-26T14:23:45.884Z,10.70
2022-11-26T14:25:48.421Z,10.70
2022-11-26T14:27:54.388Z,10.60
2022-11-26T14:29:59.652Z,10.60
2022-11-26T14:32:02.351Z,10.60
2022-11-26T14:34:06.642Z,10.60
2022-11-26T14:38:33.736Z,10.50
2022-11-26T14:40:36.770Z,10.50
2022-11-26T14:42:40.284Z,10.50
2022-11-26T14:44:42.926Z,10.50
2022-11-26T14:46:46.447Z,10.40
2022-11-26T14:48:49.820Z,10.40
2022-11-26T14:50:52.707Z,10.40
2022-11-26T14:52:57.648Z,10.30
2022-11-26T14:55:01.831Z,10.30
2022-11-26T14:57:06.573Z,10.30
2022-11-26T14:59:12.332Z,10.30
2022-11-26T15:01:19.426Z,10.20
2022-11-26T15:03:23.928Z,10.20
2022-11-26T15:05:27.567Z,10.10
2022-11-26T15:07:30.968Z,10.10
2022-11-26T15:09:33.397Z,10.10
2022-11-26T15:11:37.649Z,10.10
2022-11-26T15:13:41.653Z,10.10
2022-11-26T15:18:06.563Z,10.10
2022-11-26T15:20:12.592Z,10.10
2022-11-26T15:22:19.385Z,10.00
2022-11-26T15:24:21.876Z,10.00
2022-11-26T15:26:25.716Z,9.90
2022-11-26T15:28:28.260Z,9.90
2022-11-26T15:30:31.472Z,9.90
2022-11-26T15:32:33.950Z,9.90
2022-11-26T15:34:36.607Z,9.80
2022-11-26T15:36:39.144Z,9.90
2022-11-26T15:38:59.904Z,9.80
2022-11-26T15:41:05.554Z,9.80
2022-11-26T15:43:15.212Z,9.70
2022-11-26T15:45:19.185Z,9.70
2022-11-26T15:47:23.468Z,9.70
2022-11-26T15:49:27.109Z,9.70
2022-11-26T15:51:35.214Z,9.70
2022-11-26T15:53:36.678Z,9.70
2022-11-26T15:55:39.292Z,9.70
2022-11-26T15:57:42.098Z,9.70
2022-11-26T15:59:46.296Z,9.70
2022-11-26T16:01:48.815Z,9.60
2022-11-26T16:03:51.777Z,9.50
2022-11-26T16:05:55.629Z,9.50
2022-11-26T16:07:59.258Z,9.40
2022-11-26T16:10:12.724Z,9.40
2022-11-26T16:12:28.727Z,9.40
2022-11-26T16:14:32.457Z,9.40
2022-11-26T16:16:34.981Z,9.40
2022-11-26T16:18:38.516Z,9.30
2022-11-26T16:20:41.044Z,9.30
2022-11-26T16:22:45.260Z,9.20
2022-11-26T16:24:49.544Z,9.20
2022-11-26T16:26:53.222Z,9.20
2022-11-26T16:28:55.746Z,9.20
2022-11-26T16:30:58.260Z,9.20
2022-11-26T16:33:00.872Z,9.20
2022-11-26T16:35:23.100Z,9.10
2022-11-26T16:37:13.537Z,9.20
2022-11-26T16:39:16.661Z,9.10
2022-11-26T16:41:19.964Z,9.10
2022-11-26T16:43:22.535Z,9.10
2022-11-26T16:45:25.042Z,9.10
2022-11-26T16:47:28.821Z,9.00
2022-11-26T16:49:31.298Z,9.00
2022-11-26T16:51:33.775Z,9.00
2022-11-26T16:53:36.301Z,9.00
2022-11-26T16:55:38.791Z,9.00
2022-11-26T16:57:41.980Z,8.90
2022-11-26T16:59:45.652Z,8.90
2022-11-26T17:01:48.184Z,8.90
2022-11-26T17:03:50.736Z,8.90
2022-11-26T17:05:54.211Z,8.90
2022-11-26T17:07:58.398Z,8.90
2022-11-26T17:10:00.873Z,8.90
2022-11-26T17:12:03.563Z,8.90
2022-11-26T17:14:06.046Z,8.90
2022-11-26T17:16:12.415Z,8.90
2022-11-26T17:18:18.390Z,8.90
2022-11-26T17:20:22.108Z,8.80
2022-11-26T17:22:24.743Z,8.80
2022-11-26T17:26:44.794Z,8.70
2022-11-26T17:28:47.536Z,8.60
2022-11-26T17:30:50.447Z,8.60
2022-11-26T17:32:52.928Z,8.60
2022-11-26T17:34:55.444Z,8.60
2022-11-26T17:36:59.713Z,8.60
2022-11-26T17:39:02.204Z,8.50
2022-11-26T17:41:05.799Z,8.50
2022-11-26T17:43:08.376Z,8.50
2022-11-26T17:45:11.425Z,8.40
2022-11-26T17:47:17.456Z,8.40
2022-11-26T17:49:19.210Z,8.50
2022-11-26T17:51:21.812Z,8.40
2022-11-26T17:53:24.279Z,8.30
2022-11-26T17:55:26.965Z,8.40
2022-11-26T17:57:29.456Z,8.20
2022-11-26T17:59:32.155Z,8.20
2022-11-26T18:01:34.702Z,8.20
2022-11-26T18:03:37.242Z,8.20
2022-11-26T18:05:42.281Z,8.10
2022-11-26T18:07:44.244Z,8.10
2022-11-26T18:09:46.801Z,8.10
2022-11-26T18:11:50.198Z,8.00
2022-11-26T18:13:52.719Z,8.10
2022-11-26T18:15:58.108Z,8.10
2022-11-26T18:18:00.617Z,8.00
2022-11-26T18:20:03.297Z,8.00
2022-11-26T18:22:05.906Z,8.00
2022-11-26T18:24:09.602Z,8.00
2022-11-26T18:26:16.189Z,8.00
2022-11-26T18:28:18.664Z,8.00
2022-11-26T18:30:21.194Z,8.00
2022-11-26T18:32:23.642Z,7.80
2022-11-26T18:34:26.131Z,7.90
2022-11-26T18:36:28.746Z,7.80
2022-11-26T18:38:32.540Z,7.70
2022-11-26T18:40:35.333Z,7.70
2022-11-26T18:42:38.521Z,7.70
2022-11-26T18:44:41.376Z,7.70
2022-11-26T18:46:43.884Z,7.60
2022-11-26T18:48:47.282Z,7.50
2022-11-26T18:50:55.944Z,7.50
2022-11-26T18:52:58.828Z,7.50
2022-11-26T18:55:04.013Z,7.40
2022-11-26T18:57:06.483Z,7.30
2022-11-26T18:59:09.500Z,7.30
2022-11-26T19:01:13.064Z,7.40
2022-11-26T19:03:15.913Z,7.30
2022-11-26T19:05:18.426Z,7.20
2022-11-26T19:07:20.973Z,7.20
2022-11-26T19:09:23.510Z,7.20
2022-11-26T19:11:27.242Z,7.20
2022-11-26T19:13:29.856Z,7.20
2022-11-26T19:15:32.649Z,7.10
2022-11-26T19:17:35.129Z,7.20
2022-11-26T19:19:38.233Z,7.20
2022-11-26T19:21:40.925Z,7.10
2022-11-26T19:23:43.425Z,7.10
2022-11-26T19:25:45.975Z,7.10
2022-11-26T19:27:48.746Z,7.00
2022-11-26T19:29:51.350Z,7.10
2022-11-26T19:31:53.859Z,7.10
2022-11-26T19:33:57.523Z,7.00
2022-11-26T19:36:01.921Z,7.10
2022-11-26T19:38:04.442Z,7.00
2022-11-26T19:40:08.566Z,7.00
2022-11-26T19:42:11.045Z,6.90
2022-11-26T19:44:13.697Z,7.00
2022-11-26T19:46:16.913Z,6.90
2022-11-26T19:48:19.469Z,7.00
2022-11-26T19:50:21.969Z,6.90
2022-11-26T19:52:24.473Z,6.90
2022-11-26T19:54:26.960Z,6.90
2022-11-26T19:56:30.411Z,6.90
2022-11-26T19:58:33.624Z,6.90
2022-11-26T20:00:36.244Z,6.90
2022-11-26T20:02:38.817Z,6.80
2022-11-26T20:04:41.509Z,6.70
2022-11-26T20:06:44.306Z,6.70
2022-11-26T20:08:46.915Z,6.60
2022-11-26T20:10:50.205Z,6.60
2022-11-26T20:12:52.785Z,6.50
2022-11-26T20:14:55.257Z,6.50
2022-11-26T20:17:00.952Z,6.40
2022-11-26T20:19:02.450Z,6.40
2022-11-26T20:21:06.870Z,6.40
2022-11-26T20:23:09.531Z,6.40
2022-11-26T20:25:14.576Z,6.40
2022-11-26T20:27:17.069Z,6.40
2022-11-26T20:29:19.886Z,6.40
2022-11-26T20:31:24.211Z,6.30
2022-11-26T20:33:27.266Z,6.30
2022-11-26T20:35:29.840Z,6.30
2022-11-26T20:37:32.325Z,6.30
2022-11-26T20:39:34.885Z,6.30
2022-11-26T20:41:37.398Z,6.30
2022-11-26T20:43:39.910Z,6.30
2022-11-26T20:45:42.411Z,6.30
2022-11-26T20:47:45.081Z,6.30
2022-11-26T20:49:48.010Z,6.40
2022-11-26T20:51:50.859Z,6.30
2022-11-26T20:53:53.459Z,6.30
2022-11-26T20:55:56.186Z,6.40
2022-11-26T20:57:58.781Z,6.30
2022-11-26T21:00:02.837Z,6.30
2022-11-26T21:02:05.351Z,6.30
2022-11-26T21:04:08.084Z,6.30
2022-11-26T21:06:11.803Z,6.30
2022-11-26T21:08:14.270Z,6.30
2022-11-26T21:10:17.639Z,6.20
2022-11-26T21:12:20.105Z,6.20
2022-11-26T21:14:23.014Z,6.30
2022-11-26T21:16:25.878Z,6.20
2022-11-26T21:18:28.462Z,6.20
2022-11-26T21:20:35.985Z,6.30
2022-11-26T21:22:35.310Z,6.30
2022-11-26T21:24:37.917Z,6.30
2022-11-26T21:26:40.417Z,6.30
2022-11-26T21:28:43.447Z,6.40
2022-11-26T21:30:46.267Z,6.40
2022-11-26T21:32:48.775Z,6.50
2022-11-26T21:34:51.411Z,6.40
2022-11-26T21:36:53.912Z,6.50
2022-11-26T21:38:56.526Z,6.50
2022-11-26T21:41:00.853Z,6.50
2022-11-26T21:43:03.421Z,6.60
2022-11-26T21:45:07.374Z,6.60
2022-11-26T21:47:09.932Z,6.60
2022-11-26T21:49:12.400Z,6.50
2022-11-26T21:51:15.905Z,6.50
2022-11-26T21:53:18.391Z,6.50
2022-11-26T21:55:21.548Z,6.40
2022-11-26T21:57:24.084Z,6.50
2022-11-26T21:59:27.589Z,6.50
2022-11-26T22:01:30.872Z,6.60
2022-11-26T22:03:34.376Z,6.50
2022-11-26T22:05:37.019Z,6.30
2022-11-26T22:07:39.795Z,6.20
2022-11-26T22:09:42.608Z,6.10
2022-11-26T22:11:45.659Z,6.00
2022-11-26T22:13:48.141Z,5.90
2022-11-26T22:15:50.666Z,5.90
2022-11-26T22:17:53.243Z,5.90
2022-11-26T22:19:55.701Z,5.90
2022-11-26T22:21:58.208Z,5.90
2022-11-26T22:24:01.399Z,5.90
2022-11-26T22:26:04.076Z,5.90
2022-11-26T22:28:06.572Z,6.00
2022-11-26T22:30:09.797Z,6.00
2022-11-26T22:32:12.291Z,5.90
2022-11-26T22:34:16.391Z,5.90
2022-11-26T22:36:18.854Z,6.00
2022-11-26T22:38:21.367Z,6.00
2022-11-26T22:40:23.840Z,6.00
2022-11-26T22:42:26.368Z,5.90
2022-11-26T22:44:28.870Z,6.00
2022-11-26T22:46:33.554Z,6.00
2022-11-26T22:48:36.029Z,6.00
2022-11-26T22:50:38.544Z,6.00
2022-11-26T22:52:42.137Z,6.10
2022-11-26T22:54:44.636Z,6.10
2022-11-26T22:56:47.152Z,6.20
2022-11-26T22:58:49.828Z,6.10
2022-11-26T23:00:53.405Z,6.20
2022-11-26T23:02:56.009Z,6.20
2022-11-26T23:04:58.561Z,6.20
2022-11-26T23:07:01.068Z,6.20
2022-11-26T23:09:04.192Z,6.20
2022-11-26T23:11:07.536Z,6.20
2022-11-26T23:13:10.777Z,6.20
2022-11-26T23:15:13.266Z,6.10
2022-11-26T23:17:15.794Z,6.00
2022-11-26T23:19:18.531Z,5.90
2022-11-26T23:21:21.892Z,5.90
2022-11-26T23:23:24.360Z,5.90
2022-11-26T23:25:26.873Z,5.70
2022-11-26T23:27:29.363Z,5.70
2022-11-26T23:29:31.815Z,5.80
2022-11-26T23:31:35.954Z,5.80
2022-11-26T23:33:38.587Z,5.70
2022-11-26T23:35:43.198Z,5.70
2022-11-26T23:37:45.644Z,5.80
2022-11-26T23:39:48.138Z,5.80
2022-11-26T23:41:50.633Z,5.80
2022-11-26T23:43:53.109Z,5.80
2022-11-26T23:45:59.924Z,5.90
2022-11-26T23:48:02.484Z,5.90
2022-11-26T23:50:06.187Z,5.90
2022-11-26T23:52:08.729Z,5.90
2022-11-26T23:54:11.225Z,5.90
2022-11-26T23:56:14.359Z,5.90
2022-11-26T23:58:16.858Z,5.90
